Time;durP1;ratioP1;P1;durP2;ratioP2;P2;SDS_P1;SDS_P2;PMS_P1;PMS_P2;Temp;Humidity;BMP_temperature;BMP_pressure;BME280_temperature;BME280_humidity;BME280_pressure;Samples;Min_cycle;Max_cycle;Signal;HPM_P1;HPM_P2
2021/07/13 00:00:35;;;;;;;13.60;12.43;;;;;;;23.10;71.31;100654.88;5039687;28;20558;-68
2021/07/13 00:03:02;;;;;;;12.93;11.83;;;;;;;23.40;70.00;100651.81;5039662;28;20559;-68
2021/07/13 00:05:28;;;;;;;13.70;12.37;;;;;;;23.10;71.73;100648.69;5040023;28;20409;-68
2021/07/13 00:07:54;;;;;;;13.40;12.07;;;;;;;23.38;70.45;100648.31;5039545;28;20503;-68
2021/07/13 00:10:26;;;;;;;12.63;11.47;;;;;;;22.48;73.78;100646.00;5039048;28;20920;-68
2021/07/13 00:12:52;;;;;;;12.33;11.27;;;;;;;22.40;74.19;100653.44;5039667;28;20451;-67
2021/07/13 00:15:18;;;;;;;13.10;12.00;;;;;;;22.08;75.88;100653.75;5039438;28;20430;-67
2021/07/13 00:17:43;;;;;;;11.97;10.97;;;;;;;22.44;74.26;100653.22;5039110;28;20433;-69
2021/07/13 00:20:09;;;;;;;13.67;12.40;;;;;;;22.25;75.19;100655.75;5039677;28;20174;-67
2021/07/13 00:22:34;;;;;;;13.47;12.37;;;;;;;22.29;75.34;100653.84;5038923;28;20480;-67
2021/07/13 00:25:00;;;;;;;13.83;12.60;;;;;;;22.47;74.47;100655.75;5039094;28;20479;-69
2021/07/13 00:27:25;;;;;;;13.77;12.60;;;;;;;21.95;76.98;100661.34;5039565;28;20181;-68
2021/07/13 00:29:51;;;;;;;13.67;12.27;;;;;;;21.90;77.47;100662.47;5039092;28;20184;-69
2021/07/13 00:32:16;;;;;;;13.13;12.20;;;;;;;22.23;75.81;100665.56;5038863;28;20186;-68
2021/07/13 00:34:41;;;;;;;13.00;11.83;;;;;;;22.12;76.36;100668.66;5039412;28;20169;-69
2021/07/13 00:37:07;;;;;;;13.43;12.33;;;;;;;21.76;78.11;100666.50;5038932;28;20174;-68
2021/07/13 00:39:32;;;;;;;13.50;12.40;;;;;;;22.27;76.26;100661.88;5038902;28;20202;-68
2021/07/13 00:41:57;;;;;;;13.20;12.20;;;;;;;22.05;76.82;100664.50;5039281;28;20198;-67
2021/07/13 00:44:23;;;;;;;13.43;12.33;;;;;;;21.75;78.86;100655.97;5038731;28;20182;-67
2021/07/13 00:46:49;;;;;;;13.70;12.60;;;;;;;21.83;78.30;100662.69;5038762;28;20174;-67
2021/07/13 00:49:17;;;;;;;14.37;12.90;;;;;;;21.63;79.54;100665.25;5038401;28;20440;-66
2021/07/13 00:51:45;;;;;;;14.13;12.83;;;;;;;22.08;77.87;100668.81;5038796;28;20423;-67
2021/07/13 00:54:11;;;;;;;14.83;13.40;;;;;;;21.34;81.31;100667.16;5037964;28;20475;-67
2021/07/13 00:56:39;;;;;;;14.03;12.73;;;;;;;21.72;79.59;100664.00;5039083;28;20409;-67
2021/07/13 00:59:05;;;;;;;14.30;13.00;;;;;;;21.78;79.46;100663.78;5038438;28;20448;-67
2021/07/13 01:01:32;;;;;;;13.70;12.60;;;;;;;21.59;79.80;100659.19;5038416;28;20722;-67
2021/07/13 01:03:58;;;;;;;16.10;14.60;;;;;;;21.57;79.94;100671.66;5038817;28;20236;-67
2021/07/13 01:06:25;;;;;;;14.83;13.30;;;;;;;21.80;79.51;100661.97;5038000;28;20518;-68
2021/07/13 01:08:57;;;;;;;14.10;12.80;;;;;;;21.63;80.31;100668.75;5038056;28;20683;-68
2021/07/13 01:11:31;;;;;;;15.33;13.87;;;;;;;21.84;79.22;100664.44;5037977;28;20656;-68
2021/07/13 01:14:03;;;;;;;15.10;13.77;;;;;;;22.12;78.14;100657.16;5037287;28;20425;-68
2021/07/13 01:16:33;;;;;;;14.50;13.10;;;;;;;21.76;79.94;100655.91;5037313;28;20532;-68
2021/07/13 01:19:12;;;;;;;16.20;14.90;;;;;;;21.98;78.77;100647.09;5038081;28;20440;-68
2021/07/13 01:21:57;;;;;;;15.03;13.73;;;;;;;21.79;79.54;100647.81;5037557;28;20464;-68
2021/07/13 01:24:36;;;;;;;14.97;13.27;;;;;;;22.10;78.94;100633.34;5037042;28;20886;-68
2021/07/13 01:27:07;;;;;;;14.70;13.53;;;;;;;22.16;78.11;100638.41;5038241;28;20844;-68
2021/07/13 01:29:34;;;;;;;14.60;13.27;;;;;;;22.02;78.69;100635.44;5037934;28;20771;-68
2021/07/13 01:32:01;;;;;;;15.73;14.37;;;;;;;21.90;78.69;100639.44;5037048;28;20437;-68
2021/07/13 01:34:31;;;;;;;14.90;13.57;;;;;;;22.28;77.89;100633.50;5038083;28;20799;-69
2021/07/13 01:36:59;;;;;;;15.13;13.93;;;;;;;22.85;74.88;100628.47;5037919;28;20869;-68
2021/07/13 01:39:25;;;;;;;17.40;14.47;;;;;;;22.57;76.23;100628.81;5037924;28;20417;-68
2021/07/13 01:41:53;;;;;;;14.83;13.60;;;;;;;22.78;75.09;100627.03;5037514;28;20440;-68
2021/07/13 01:44:21;;;;;;;14.80;13.60;;;;;;;22.52;76.12;100623.69;5037599;28;20678;-68
2021/07/13 01:46:49;;;;;;;14.63;13.43;;;;;;;21.89;78.54;100624.41;5037016;28;20477;-68
2021/07/13 01:49:19;;;;;;;15.47;14.17;;;;;;;21.64;80.14;100621.88;5037558;28;20546;-66
2021/07/13 01:51:47;;;;;;;15.57;13.83;;;;;;;21.65;79.86;100608.56;5037073;28;20417;-67
2021/07/13 01:54:13;;;;;;;14.80;13.70;;;;;;;21.82;79.58;100612.34;5036881;28;20488;-67
2021/07/13 01:56:39;;;;;;;15.87;14.33;;;;;;;21.93;78.92;100602.13;5037382;28;20417;-67
2021/07/13 01:59:06;;;;;;;14.77;13.57;;;;;;;22.22;77.38;100602.78;5036869;28;20428;-67
2021/07/13 02:01:32;;;;;;;18.50;14.80;;;;;;;21.71;79.57;100602.13;5037668;28;20471;-67
2021/07/13 02:03:58;;;;;;;14.70;13.50;;;;;;;21.41;81.44;100599.72;5037167;28;20415;-67
2021/07/13 02:06:27;;;;;;;16.50;15.20;;;;;;;21.30;82.30;100591.31;5036911;28;20184;-68
2021/07/13 02:08:54;;;;;;;15.50;14.20;;;;;;;21.66;80.08;100590.84;5037549;28;20174;-68
2021/07/13 02:11:20;;;;;;;16.63;15.13;;;;;;;21.60;80.25;100586.63;5037217;28;20427;-68
2021/07/13 02:13:45;;;;;;;17.03;15.13;;;;;;;22.07;78.45;100592.75;5036497;28;20420;-69
2021/07/13 02:16:11;;;;;;;16.10;14.70;;;;;;;22.39;76.63;100596.78;5037331;28;20421;-68
2021/07/13 02:18:36;;;;;;;15.23;13.87;;;;;;;22.51;76.59;100587.41;5037868;28;20269;-69
2021/07/13 02:21:03;;;;;;;16.97;15.47;;;;;;;22.64;75.98;100587.78;5037276;28;20466;-69
2021/07/13 02:23:28;;;;;;;16.20;14.90;;;;;;;22.51;75.62;100593.59;5036918;28;20227;-68
2021/07/13 02:25:55;;;;;;;16.53;15.07;;;;;;;22.69;75.57;100591.97;5038190;28;20450;-68
2021/07/13 02:28:27;;;;;;;17.20;15.80;;;;;;;22.14;77.01;100596.91;5037291;28;20235;-68
2021/07/13 02:30:56;;;;;;;16.50;15.30;;;;;;;21.67;79.55;100600.53;5036544;28;20413;-68
2021/07/13 02:33:25;;;;;;;17.37;15.97;;;;;;;21.65;79.56;100602.34;5038454;28;20545;-68
2021/07/13 02:35:54;;;;;;;17.00;15.60;;;;;;;21.39;81.13;100595.38;5040339;28;20659;-68
2021/07/13 02:38:20;;;;;;;17.00;15.60;;;;;;;21.42;81.25;100590.84;5040788;28;20659;-68
2021/07/13 02:40:47;;;;;;;17.27;15.87;;;;;;;21.32;81.83;100592.09;5040113;28;20419;-68
2021/07/13 02:43:13;;;;;;;17.40;15.67;;;;;;;21.63;80.29;100599.78;5040805;28;20417;-67
2021/07/13 02:45:40;;;;;;;16.20;14.80;;;;;;;21.83;79.77;100590.19;5041271;28;20511;-68
2021/07/13 02:48:06;;;;;;;17.60;16.10;;;;;;;21.45;80.90;100585.41;5040816;28;20248;-67
2021/07/13 02:50:32;;;;;;;18.57;16.70;;;;;;;21.62;80.75;100590.09;5039979;28;20417;-67
2021/07/13 02:52:58;;;;;;;16.57;15.10;;;;;;;21.37;81.71;100595.44;5040443;28;20523;-67
2021/07/13 02:55:24;;;;;;;18.10;16.60;;;;;;;21.31;81.85;100590.34;5040599;28;20552;-67
2021/07/13 02:57:50;;;;;;;17.43;15.93;;;;;;;21.17;82.78;100594.38;5039986;28;20417;-67
2021/07/13 03:00:18;;;;;;;18.20;16.60;;;;;;;21.23;82.73;100598.63;5041054;28;20494;-67
2021/07/13 03:02:46;;;;;;;19.30;17.43;;;;;;;21.32;82.10;100594.75;5040401;28;20467;-67
2021/07/13 03:05:16;;;;;;;17.77;16.27;;;;;;;21.57;80.70;100584.13;5040516;28;20451;-67
2021/07/13 03:07:42;;;;;;;18.00;16.20;;;;;;;21.31;82.21;100590.34;5039823;28;20474;-67
2021/07/13 03:10:08;;;;;;;18.53;17.07;;;;;;;21.33;81.74;100596.50;5039774;28;20421;-67
2021/07/13 03:12:34;;;;;;;18.53;16.93;;;;;;;21.86;79.70;100587.41;5040413;28;20174;-68
2021/07/13 03:14:59;;;;;;;18.53;16.60;;;;;;;21.41;81.54;100599.72;5040679;28;20421;-68
2021/07/13 03:17:26;;;;;;;19.37;17.43;;;;;;;21.24;82.68;100599.47;5040293;28;20190;-68
2021/07/13 03:19:52;;;;;;;18.53;16.93;;;;;;;21.25;82.33;100596.75;5040893;28;20198;-68
2021/07/13 03:22:21;;;;;;;17.90;16.40;;;;;;;21.48;81.73;100595.88;5039317;28;20863;-67
2021/07/13 03:24:48;;;;;;;19.87;17.97;;;;;;;22.02;78.33;100590.31;5040200;28;20874;-68
2021/07/13 03:27:13;;;;;;;19.67;17.87;;;;;;;21.96;78.27;100588.78;5040637;28;20405;-68
2021/07/13 03:29:39;;;;;;;20.40;18.50;;;;;;;21.86;79.52;100587.41;5039303;28;20421;-68
2021/07/13 03:32:06;;;;;;;20.77;18.70;;;;;;;21.73;80.23;100589.69;5039093;28;20181;-68
2021/07/13 03:34:31;;;;;;;20.00;18.20;;;;;;;21.04;83.09;100593.13;5039654;28;20417;-68
2021/07/13 03:36:56;;;;;;;19.80;17.90;;;;;;;21.17;83.12;100593.53;5040161;28;20436;-68
2021/07/13 03:39:22;;;;;;;19.20;17.70;;;;;;;21.16;82.45;100595.34;5039257;28;20170;-68
2021/07/13 03:41:48;;;;;;;20.67;18.77;;;;;;;20.92;83.80;100596.19;5039749;28;20198;-68
2021/07/13 03:44:13;;;;;;;19.73;17.80;;;;;;;20.93;83.77;100597.94;5038291;28;20201;-68
2021/07/13 03:46:39;;;;;;;19.30;17.60;;;;;;;20.85;83.85;100599.09;5039723;28;20425;-68
2021/07/13 03:49:05;;;;;;;19.10;17.40;;;;;;;20.92;83.67;100601.50;5040282;28;20170;-67
2021/07/13 03:51:42;;;;;;;19.10;17.50;;;;;;;20.69;85.36;100605.84;5039579;28;20170;-67
2021/07/13 03:54:08;;;;;;;18.70;17.00;;;;;;;21.08;82.88;100593.88;5039473;28;20427;-68
2021/07/13 03:56:34;;;;;;;20.50;18.67;;;;;;;21.26;83.09;100589.69;5039464;28;20417;-68
2021/07/13 03:59:00;;;;;;;19.93;17.93;;;;;;;21.10;83.61;100592.91;5039534;28;20425;-68
2021/07/13 04:01:25;;;;;;;20.13;18.20;;;;;;;21.14;82.77;100601.59;5039868;28;20190;-68
2021/07/13 04:03:50;;;;;;;18.53;16.93;;;;;;;20.87;84.15;100604.31;5039241;28;20464;-68
2021/07/13 04:06:15;;;;;;;18.83;17.20;;;;;;;21.07;83.40;100603.63;5039366;28;20186;-68
2021/07/13 04:08:41;;;;;;;20.13;18.43;;;;;;;21.57;80.90;100596.50;5039967;28;20176;-68
2021/07/13 04:11:06;;;;;;;18.47;16.70;;;;;;;20.81;84.53;100607.19;5039356;28;20197;-67
2021/07/13 04:13:31;;;;;;;19.63;17.90;;;;;;;20.89;83.72;100606.91;5039175;28;20168;-67
2021/07/13 04:15:57;;;;;;;20.10;18.30;;;;;;;21.46;82.13;100607.47;5039806;28;20463;-67
2021/07/13 04:18:22;;;;;;;20.93;18.77;;;;;;;21.84;80.36;100607.84;5039330;28;20209;-67
2021/07/13 04:20:47;;;;;;;19.33;17.73;;;;;;;21.39;81.46;100606.00;5039097;28;20590;-67
2021/07/13 04:23:13;;;;;;;19.83;17.70;;;;;;;21.09;83.36;100604.41;5039100;28;20491;-67
2021/07/13 04:25:38;;;;;;;20.77;18.50;;;;;;;20.78;84.36;100607.28;5039115;28;20205;-68
2021/07/13 04:28:03;;;;;;;19.67;18.13;;;;;;;21.46;82.14;100591.56;5039086;28;20185;-67
2021/07/13 04:30:29;;;;;;;19.50;17.70;;;;;;;21.31;82.41;100593.91;5038874;28;20548;-68
2021/07/13 04:32:54;;;;;;;18.60;17.10;;;;;;;22.24;78.49;100600.03;5038656;28;20178;-67
2021/07/13 04:35:19;;;;;;;18.10;16.53;;;;;;;21.86;79.50;100592.69;5039318;28;20170;-67
2021/07/13 04:37:45;;;;;;;17.57;15.97;;;;;;;22.67;76.22;100598.25;5038779;28;20182;-67
2021/07/13 04:40:11;;;;;;;16.13;14.50;;;;;;;22.73;75.11;100592.66;5038780;28;20178;-67
2021/07/13 04:42:36;;;;;;;16.77;15.37;;;;;;;21.70;79.73;100600.41;5061105;28;20497;-68
2021/07/13 04:45:02;;;;;;;18.97;17.00;;;;;;;21.27;81.99;100615.25;5076009;28;20419;-68
2021/07/13 04:47:28;;;;;;;16.90;15.50;;;;;;;22.10;78.70;100598.81;5058443;28;20174;-68
2021/07/13 04:49:53;;;;;;;20.20;18.37;;;;;;;21.61;79.66;100600.75;5065683;28;20419;-68
2021/07/13 04:52:18;;;;;;;18.23;16.60;;;;;;;21.95;79.06;100600.31;5078208;28;20217;-67
2021/07/13 04:54:45;;;;;;;17.20;15.70;;;;;;;22.33;77.10;100604.97;5078496;28;20172;-68
2021/07/13 04:57:10;;;;;;;16.57;15.00;;;;;;;22.99;73.60;100594.19;5077957;28;20590;-69
2021/07/13 04:59:36;;;;;;;15.20;14.00;;;;;;;23.05;72.55;100606.34;5061405;28;20462;-69
2021/07/13 05:02:02;;;;;;;15.30;14.00;;;;;;;22.89;73.27;100608.81;5058157;28;20208;-68
2021/07/13 05:04:28;;;;;;;18.03;15.10;;;;;;;22.56;75.14;100609.34;5057736;28;20166;-69
2021/07/13 05:06:53;;;;;;;17.07;15.50;;;;;;;23.49;71.78;100619.44;5058105;28;20419;-68
2021/07/13 05:09:19;;;;;;;17.57;15.97;;;;;;;23.67;70.88;100616.88;5058123;28;20446;-68
2021/07/13 05:11:44;;;;;;;17.50;15.70;;;;;;;22.41;74.90;100612.63;5058476;28;20234;-69
2021/07/13 05:14:09;;;;;;;18.00;16.60;;;;;;;21.87;78.09;100618.31;5057873;28;20798;-69
2021/07/13 05:16:35;;;;;;;18.83;16.90;;;;;;;21.31;80.33;100624.81;5074747;28;20181;-68
2021/07/13 05:19:01;;;;;;;19.93;18.03;;;;;;;21.51;79.44;100621.44;5078385;28;20200;-68
2021/07/13 05:21:26;;;;;;;20.07;18.17;;;;;;;22.15;76.82;100612.78;5077675;28;20201;-69
2021/07/13 05:23:52;;;;;;;20.27;18.33;;;;;;;22.15;77.00;100618.09;5077462;28;20525;-69
2021/07/13 05:26:17;;;;;;;19.13;17.43;;;;;;;22.06;77.00;100622.91;5078173;28;20172;-69
2021/07/13 05:28:43;;;;;;;18.53;16.87;;;;;;;22.17;76.84;100621.53;5077709;28;20553;-69
2021/07/13 05:31:08;;;;;;;19.27;17.47;;;;;;;21.95;78.28;100620.69;5077838;28;20195;-68
2021/07/13 05:33:34;;;;;;;19.17;17.47;;;;;;;23.31;72.34;100614.97;5077815;28;20253;-69
2021/07/13 05:35:59;;;;;;;16.73;15.33;;;;;;;24.12;68.89;100607.63;5077696;28;20265;-68
2021/07/13 05:38:24;;;;;;;17.27;15.67;;;;;;;25.10;65.81;100603.56;5077897;28;20229;-68
2021/07/13 05:40:50;;;;;;;17.50;16.10;;;;;;;22.77;73.35;100612.91;5078131;28;20579;-68
2021/07/13 05:43:16;;;;;;;16.70;15.40;;;;;;;22.54;74.61;100609.41;5077692;28;20471;-67
2021/07/13 05:45:42;;;;;;;17.40;15.93;;;;;;;23.91;69.68;100611.31;5077676;28;20533;-68
2021/07/13 05:48:07;;;;;;;16.33;14.83;;;;;;;22.99;72.66;100612.81;5077943;28;20461;-66
2021/07/13 05:50:33;;;;;;;17.03;15.57;;;;;;;22.84;73.36;100616.13;5062944;28;20439;-69
2021/07/13 05:53:01;;;;;;;17.27;15.37;;;;;;;24.03;69.01;100608.06;5057376;28;20170;-69
2021/07/13 05:55:26;;;;;;;17.00;15.60;;;;;;;25.77;63.09;100598.16;5057950;28;20603;-68
2021/07/13 05:57:51;;;;;;;15.87;14.37;;;;;;;26.17;60.23;100603.94;5057533;28;20500;-68
2021/07/13 06:00:17;;;;;;;13.87;12.87;;;;;;;25.91;61.60;100604.53;5057363;28;20173;-68
2021/07/13 06:02:42;;;;;;;14.13;12.73;;;;;;;26.46;59.61;100593.31;5057742;28;20201;-68
2021/07/13 06:05:09;;;;;;;16.07;14.77;;;;;;;26.73;58.73;100598.00;5057524;28;20182;-68
2021/07/13 06:07:45;;;;;;;15.73;14.10;;;;;;;27.32;56.30;100599.72;5058394;28;20177;-68
2021/07/13 06:10:11;;;;;;;12.53;11.53;;;;;;;26.00;60.32;100596.84;5061466;28;20808;-68
2021/07/13 06:12:37;;;;;;;13.50;12.50;;;;;;;24.95;63.98;100596.38;5061372;28;20412;-68
2021/07/13 06:15:04;;;;;;;15.50;14.30;;;;;;;24.47;66.06;100604.13;5061715;28;20543;-68
2021/07/13 06:17:29;;;;;;;15.50;13.77;;;;;;;26.37;59.40;100600.09;5061290;28;20205;-68
2021/07/13 06:19:55;;;;;;;12.87;11.80;;;;;;;26.75;58.35;100598.78;5061489;28;20683;-68
2021/07/13 06:22:20;;;;;;;13.93;12.57;;;;;;;27.61;55.75;100599.75;5061506;28;20193;-69
2021/07/13 06:24:45;;;;;;;15.67;13.07;;;;;;;26.10;58.79;100599.91;5060979;28;20490;-68
2021/07/13 06:27:11;;;;;;;12.83;11.83;;;;;;;28.64;52.41;100592.94;5061228;28;20189;-68
2021/07/13 06:29:36;;;;;;;14.03;11.53;;;;;;;27.37;54.96;100589.63;5061604;28;20211;-68
2021/07/13 06:32:02;;;;;;;13.60;12.50;;;;;;;26.06;59.58;100595.69;5060982;28;20178;-69
2021/07/13 06:34:27;;;;;;;12.83;11.93;;;;;;;27.27;56.22;100594.69;5060678;28;20173;-69
2021/07/13 06:36:53;;;;;;;13.57;12.57;;;;;;;25.84;59.97;100601.34;5061334;28;20430;-68
2021/07/13 06:39:18;;;;;;;13.00;12.00;;;;;;;29.06;51.42;100587.38;5060895;28;20232;-69
2021/07/13 06:41:43;;;;;;;13.30;12.20;;;;;;;28.75;51.22;100589.53;5060739;28;20213;-68
2021/07/13 06:44:10;;;;;;;12.30;11.30;;;;;;;29.27;49.69;100600.25;5061109;28;20554;-67
2021/07/13 06:46:36;;;;;;;12.50;11.47;;;;;;;30.51;46.35;100592.97;5060907;28;20421;-67
2021/07/13 06:49:02;;;;;;;13.27;11.90;;;;;;;28.60;50.80;100598.59;5062755;28;20412;-68
2021/07/13 06:51:27;;;;;;;11.13;10.23;;;;;;;30.49;46.91;100584.13;5080982;28;20210;-68
2021/07/13 06:53:53;;;;;;;12.90;11.73;;;;;;;32.20;43.41;100583.06;5080431;28;20540;-68
2021/07/13 06:56:18;;;;;;;11.10;10.10;;;;;;;34.17;38.44;100579.38;5080547;28;20325;-68
2021/07/13 06:58:43;;;;;;;11.90;10.83;;;;;;;34.74;36.78;100577.56;5080820;28;20174;-69
2021/07/13 07:01:09;;;;;;;11.37;10.47;;;;;;;30.77;44.99;100587.38;5080338;28;20216;-69
2021/07/13 07:03:34;;;;;;;11.57;10.70;;;;;;;32.11;41.88;100578.44;5080298;28;20514;-69
2021/07/13 07:05:59;;;;;;;10.13;9.30;;;;;;;32.40;41.86;100584.06;5081036;28;20472;-68
2021/07/13 07:08:24;;;;;;;11.00;10.10;;;;;;;29.25;48.87;100592.31;5080344;28;20223;-69
2021/07/13 07:10:50;;;;;;;11.07;10.27;;;;;;;28.15;50.55;100589.06;5080028;28;20168;-68
2021/07/13 07:13:15;;;;;;;13.00;11.20;;;;;;;29.01;48.59;100592.19;5080546;28;20214;-68
2021/07/13 07:15:40;;;;;;;10.90;10.07;;;;;;;30.02;46.52;100580.50;5080055;28;20538;-68
2021/07/13 07:18:06;;;;;;;11.97;11.07;;;;;;;28.22;49.86;100598.41;5080174;28;20566;-67
2021/07/13 07:20:32;;;;;;;11.27;9.30;;;;;;;29.88;46.83;100589.63;5079667;28;20169;-68
2021/07/13 07:22:58;;;;;;;11.13;10.37;;;;;;;29.47;46.92;100586.28;5079751;28;20461;-69
2021/07/13 07:25:24;;;;;;;11.00;10.10;;;;;;;30.97;43.97;100585.78;5079991;28;20430;-68
2021/07/13 07:27:51;;;;;;;10.67;9.67;;;;;;;30.77;43.78;100581.13;5080225;28;20192;-67
2021/07/13 07:30:17;;;;;;;11.13;10.30;;;;;;;29.56;45.84;100590.13;5079737;28;20221;-67
2021/07/13 07:32:44;;;;;;;10.67;9.77;;;;;;;31.46;42.58;100582.88;5079867;28;20407;-68
2021/07/13 07:35:10;;;;;;;10.40;9.60;;;;;;;31.03;41.25;100585.34;5080005;28;20165;-68
2021/07/13 07:37:36;;;;;;;10.80;9.80;;;;;;;29.76;45.32;100590.50;5079765;28;20415;-68
2021/07/13 07:40:04;;;;;;;12.43;11.57;;;;;;;32.95;38.75;100579.44;5079586;28;20511;-69
2021/07/13 07:42:29;;;;;;;9.90;9.20;;;;;;;28.52;46.95;100596.44;5079506;28;20791;-68
2021/07/13 07:44:54;;;;;;;9.87;9.00;;;;;;;30.36;43.05;100584.19;5079477;28;20459;-68
2021/07/13 07:47:19;;;;;;;11.10;10.20;;;;;;;30.54;42.92;100592.72;5079373;28;20181;-67
2021/07/13 07:49:45;;;;;;;10.00;9.40;;;;;;;32.02;40.00;100590.84;5071834;28;20177;-68
2021/07/13 07:52:10;;;;;;;10.50;9.80;;;;;;;31.84;39.88;100586.97;5059048;28;20185;-68
2021/07/13 07:54:35;;;;;;;9.50;8.80;;;;;;;30.62;42.25;100591.25;5059112;28;20223;-69
2021/07/13 07:57:01;;;;;;;10.40;9.60;;;;;;;31.61;41.29;100589.75;5059585;28;20289;-68
2021/07/13 07:59:26;;;;;;;10.20;9.37;;;;;;;33.22;38.28;100586.97;5059186;28;20235;-69
2021/07/13 08:01:51;;;;;;;10.57;9.73;;;;;;;32.34;39.68;100586.44;5059322;28;20205;-70
2021/07/13 08:04:17;;;;;;;10.70;9.90;;;;;;;30.65;43.32;100582.94;5059538;28;20331;-69
2021/07/13 08:06:43;;;;;;;11.13;10.43;;;;;;;32.37;39.84;100583.50;5059238;28;20178;-69
2021/07/13 08:09:08;;;;;;;11.30;10.50;;;;;;;35.52;34.26;100565.59;5059275;28;20267;-67
2021/07/13 08:11:38;;;;;;;10.20;9.40;;;;;;;34.05;36.43;100570.53;5059386;28;20178;-67
2021/07/13 08:14:04;;;;;;;10.63;9.83;;;;;;;32.55;39.23;100581.06;5058827;28;20300;-67
2021/07/13 08:16:37;;;;;;;9.73;9.10;;;;;;;34.30;35.73;100570.94;5059025;28;20423;-67
2021/07/13 08:19:03;;;;;;;9.57;8.87;;;;;;;35.49;33.42;100559.63;5058918;28;20447;-69
2021/07/13 08:21:28;;;;;;;9.83;9.23;;;;;;;36.01;31.74;100562.53;5058878;28;20737;-69
2021/07/13 08:23:53;;;;;;;9.53;8.77;;;;;;;33.66;35.52;100565.91;5058551;28;20217;-69
2021/07/13 08:26:18;;;;;;;9.63;8.50;;;;;;;32.73;38.19;100562.44;5058662;28;20269;-68
2021/07/13 08:28:44;;;;;;;8.80;8.20;;;;;;;32.45;37.50;100577.41;5058073;28;20181;-70
2021/07/13 08:31:09;;;;;;;9.97;9.30;;;;;;;31.19;40.52;100573.34;5058466;28;20170;-69
2021/07/13 08:33:34;;;;;;;9.97;9.17;;;;;;;34.65;34.08;100559.50;5058546;28;20260;-69
2021/07/13 08:36:00;;;;;;;9.83;9.03;;;;;;;33.30;36.37;100564.69;5058810;28;20539;-69
2021/07/13 08:38:25;;;;;;;10.17;9.47;;;;;;;29.98;42.86;100570.97;5057686;28;20188;-69
2021/07/13 08:40:51;;;;;;;10.23;9.47;;;;;;;28.85;45.22;100574.50;5058397;28;20227;-67
2021/07/13 08:43:16;;;;;;;10.33;9.63;;;;;;;30.39;42.29;100557.06;5057919;28;20191;-67
2021/07/13 08:45:42;;;;;;;11.13;10.23;;;;;;;29.12;43.39;100570.84;5058395;28;20447;-70
2021/07/13 08:48:11;;;;;;;10.40;9.63;;;;;;;29.94;42.88;100564.94;5058369;28;20180;-69
2021/07/13 08:50:37;;;;;;;10.40;9.60;;;;;;;31.30;39.96;100564.38;5073288;28;20450;-69
2021/07/13 08:53:02;;;;;;;11.00;10.20;;;;;;;30.19;42.30;100560.44;5077345;28;20447;-68
2021/07/13 08:55:28;;;;;;;10.87;10.00;;;;;;;32.44;37.35;100557.69;5078080;28;20449;-68
2021/07/13 08:57:53;;;;;;;10.03;9.33;;;;;;;29.32;42.79;100560.53;5078591;28;20188;-69
2021/07/13 09:00:19;;;;;;;9.67;9.00;;;;;;;29.68;42.75;100558.81;5078182;28;20267;-69
2021/07/13 09:03:05;;;;;;;10.70;9.80;;;;;;;28.91;43.83;100562.47;5077776;28;20361;-69
2021/07/13 09:05:51;;;;;;;9.90;9.20;;;;;;;29.78;42.24;100554.44;5078095;28;20522;-68
2021/07/13 09:08:25;;;;;;;9.30;8.70;;;;;;;30.79;40.52;100553.13;5077972;28;20675;-68
2021/07/13 09:11:03;;;;;;;9.87;9.13;;;;;;;27.78;44.72;100567.38;5077997;28;20423;-68
2021/07/13 09:13:34;;;;;;;9.77;9.07;;;;;;;30.87;39.24;100556.06;5077934;28;20422;-68
2021/07/13 09:16:00;;;;;;;9.57;8.90;;;;;;;31.73;37.84;100548.31;5078194;28;20705;-68
2021/07/13 09:18:30;;;;;;;9.13;8.53;;;;;;;30.87;39.21;100547.13;5077627;28;20435;-68
2021/07/13 09:21:24;;;;;;;9.90;9.10;;;;;;;29.15;42.79;100557.19;5077690;28;20461;-68
2021/07/13 09:24:07;;;;;;;10.70;9.90;;;;;;;28.69;44.81;100558.63;5074888;28;20558;-68
2021/07/13 09:26:37;;;;;;;10.23;9.23;;;;;;;28.11;45.33;100558.06;5077881;28;20419;-68
2021/07/13 09:29:03;;;;;;;10.63;9.93;;;;;;;30.29;41.74;100550.66;5077670;28;20423;-68
2021/07/13 09:31:28;;;;;;;10.40;9.70;;;;;;;29.44;42.13;100543.50;5077608;28;20416;-67
2021/07/13 09:33:53;;;;;;;10.17;9.37;;;;;;;29.71;42.62;100545.13;5077442;28;20259;-68
2021/07/13 09:36:19;;;;;;;10.53;9.83;;;;;;;29.45;42.47;100550.59;5078438;28;20188;-67
2021/07/13 09:38:47;;;;;;;10.80;9.80;;;;;;;32.67;37.04;100541.34;5077695;28;20192;-68
2021/07/13 09:41:17;;;;;;;10.27;9.57;;;;;;;32.22;36.92;100540.66;5077632;28;20300;-68
2021/07/13 09:43:48;;;;;;;9.60;8.90;;;;;;;32.00;36.64;100538.91;5077160;28;20786;-68
2021/07/13 09:46:27;;;;;;;9.40;8.70;;;;;;;30.59;40.07;100535.00;5077593;28;20706;-68
2021/07/13 09:49:06;;;;;;;9.53;8.83;;;;;;;29.18;42.25;100540.03;5076533;28;20448;-68
2021/07/13 09:51:31;;;;;;;9.80;9.10;;;;;;;29.49;42.20;100545.88;5057774;28;20809;-69
2021/07/13 09:53:56;;;;;;;9.53;8.83;;;;;;;28.88;43.11;100549.28;5057227;28;20423;-68
2021/07/13 09:56:42;;;;;;;10.87;10.13;;;;;;;30.80;37.70;100535.16;5057141;28;20178;-68
2021/07/13 09:59:07;;;;;;;9.03;8.17;;;;;;;28.46;43.43;100536.06;5057247;28;20168;-68
2021/07/13 10:01:34;;;;;;;9.13;8.40;;;;;;;28.97;43.31;100545.09;5057073;28;20459;-68
2021/07/13 10:04:00;;;;;;;10.27;9.40;;;;;;;29.99;41.43;100527.84;5057226;28;20539;-68
2021/07/13 10:06:27;;;;;;;9.30;8.70;;;;;;;31.35;38.60;100537.94;5057533;28;20518;-68
2021/07/13 10:08:52;;;;;;;8.50;7.90;;;;;;;29.04;40.81;100541.03;5057227;28;20686;-67
2021/07/13 10:11:17;;;;;;;9.00;8.30;;;;;;;30.15;40.04;100537.44;5057030;28;20470;-66
2021/07/13 10:13:43;;;;;;;8.73;8.13;;;;;;;30.31;40.53;100537.09;5057378;28;20215;-67
2021/07/13 10:16:09;;;;;;;9.53;8.83;;;;;;;29.77;42.29;100533.94;5057077;28;20174;-66
2021/07/13 10:18:34;;;;;;;9.53;8.73;;;;;;;30.84;39.30;100529.41;5057028;28;20447;-67
2021/07/13 10:21:00;;;;;;;11.90;10.70;;;;;;;31.33;38.54;100531.84;5057344;28;20177;-66
2021/07/13 10:23:25;;;;;;;9.90;8.93;;;;;;;32.57;36.46;100525.97;5055914;28;20221;-66
2021/07/13 10:25:50;;;;;;;8.57;7.97;;;;;;;31.81;37.11;100528.81;5056296;28;20185;-67
2021/07/13 10:28:21;;;;;;;9.67;8.97;;;;;;;32.65;35.75;100532.53;5056571;28;20227;-67
2021/07/13 10:30:47;;;;;;;9.40;8.80;;;;;;;30.25;40.13;100530.38;5056981;28;20174;-67
2021/07/13 10:33:29;;;;;;;9.33;8.63;;;;;;;31.07;38.18;100535.66;5056879;28;20420;-67
2021/07/13 10:35:56;;;;;;;9.37;8.47;;;;;;;30.04;40.33;100535.56;5056926;28;20657;-67
2021/07/13 10:38:25;;;;;;;8.87;8.20;;;;;;;29.10;41.53;100534.34;5056977;28;20412;-67
2021/07/13 10:40:54;;;;;;;9.43;8.63;;;;;;;28.53;43.11;100548.06;5056947;28;20440;-66
2021/07/13 10:43:23;;;;;;;9.23;8.50;;;;;;;30.74;39.13;100540.03;5056802;28;20495;-67
2021/07/13 10:46:18;;;;;;;8.83;8.23;;;;;;;29.53;41.18;100542.00;5056930;28;20683;-67
2021/07/13 10:48:43;;;;;;;9.90;9.10;;;;;;;29.69;40.47;100541.72;5047307;28;20528;-68
2021/07/13 10:51:09;;;;;;;9.00;8.37;;;;;;;29.52;41.27;100537.59;5076289;28;20423;-68
2021/07/13 10:53:42;;;;;;;9.00;8.40;;;;;;;30.96;38.40;100530.25;5077849;28;20522;-67
2021/07/13 10:56:17;;;;;;;9.43;8.47;;;;;;;33.15;34.88;100527.25;5080959;28;20502;-67
2021/07/13 10:58:49;;;;;;;9.30;8.60;;;;;;;30.79;38.34;100531.59;5080247;28;20426;-68
2021/07/13 11:01:17;;;;;;;10.10;9.10;;;;;;;30.29;38.85;100534.53;5080237;28;20469;-68
2021/07/13 11:03:43;;;;;;;8.80;8.00;;;;;;;30.99;38.59;100534.53;5080155;28;20454;-67
2021/07/13 11:06:14;;;;;;;9.03;8.33;;;;;;;30.93;37.04;100530.47;5080251;28;20407;-67
2021/07/13 11:08:47;;;;;;;8.43;7.80;;;;;;;32.85;34.21;100528.94;5080769;28;20403;-68
2021/07/13 11:11:18;;;;;;;8.23;7.43;;;;;;;32.77;33.54;100528.78;5080115;28;20457;-68
2021/07/13 11:13:56;;;;;;;8.63;7.93;;;;;;;31.81;34.86;100544.97;5080063;28;20412;-69